createdAt,value
2017-02-06T00:00:25.459Z,1.66
2017-02-06T00:02:37.914Z,1.68
2017-02-06T00:04:48.429Z,1.63
2017-02-06T00:07:01.169Z,1.73
2017-02-06T00:09:13.426Z,1.83
2017-02-06T00:11:25.831Z,1.86
2017-02-06T00:13:40.725Z,1.84
2017-02-06T00:15:57.617Z,1.77
2017-02-06T00:18:06.902Z,1.81
2017-02-06T00:20:21.441Z,1.84
2017-02-06T00:22:33.837Z,1.84
2017-02-06T00:24:46.155Z,1.88
2017-02-06T00:26:58.300Z,1.81
2017-02-06T00:29:10.550Z,1.81
2017-02-06T00:31:22.864Z,1.76
2017-02-06T00:33:35.152Z,1.76
2017-02-06T00:35:47.556Z,1.76
2017-02-06T00:37:59.945Z,1.73
2017-02-06T00:40:12.342Z,1.72
2017-02-06T00:42:24.855Z,1.69
2017-02-06T00:44:37.373Z,1.73
2017-02-06T00:46:49.776Z,1.72
2017-02-06T00:49:02.058Z,1.69
2017-02-06T00:51:14.294Z,1.65
2017-02-06T00:53:26.598Z,1.65
2017-02-06T00:55:38.939Z,1.69
2017-02-06T00:57:51.163Z,1.66
2017-02-06T01:00:03.476Z,1.63
2017-02-06T01:02:15.770Z,1.68
2017-02-06T01:04:27.972Z,1.7
2017-02-06T01:06:40.245Z,1.7
2017-02-06T01:08:52.592Z,1.7
2017-02-06T01:11:04.889Z,1.72
2017-02-06T01:13:17.278Z,1.73
2017-02-06T01:15:29.839Z,1.79
2017-02-06T01:17:42.346Z,1.79
2017-02-06T01:19:54.821Z,1.83
2017-02-06T01:22:07.249Z,1.84
2017-02-06T01:24:19.492Z,1.77
2017-02-06T01:26:31.667Z,1.76
2017-02-06T01:28:43.989Z,1.77
2017-02-06T01:30:56.260Z,1.77
2017-02-06T01:33:08.449Z,1.77
2017-02-06T01:35:20.692Z,1.7
2017-02-06T01:37:32.860Z,1.68
2017-02-06T01:39:45.100Z,1.69
2017-02-06T01:41:52.313Z,1.65
2017-02-06T01:44:04.584Z,1.65
2017-02-06T01:46:16.781Z,1.68
2017-02-06T01:48:29.085Z,1.66
2017-02-06T01:50:41.888Z,1.68
2017-02-06T01:52:54.505Z,1.66
2017-02-06T01:55:06.801Z,1.62
2017-02-06T01:57:19.001Z,1.63
2017-02-06T01:59:31.322Z,1.65
2017-02-06T02:01:43.724Z,1.62
2017-02-06T02:03:55.911Z,1.6
2017-02-06T02:06:08.207Z,1.59
2017-02-06T02:08:20.514Z,1.54
2017-02-06T02:10:32.652Z,1.52
2017-02-06T02:12:44.923Z,1.48
2017-02-06T02:14:57.093Z,1.45
2017-02-06T02:17:09.213Z,1.44
2017-02-06T02:19:16.613Z,1.42
2017-02-06T02:21:23.967Z,1.41
2017-02-06T02:23:36.184Z,1.37
2017-02-06T02:25:48.785Z,1.37
2017-02-06T02:28:01.595Z,1.36
2017-02-06T02:30:13.789Z,1.34
2017-02-06T02:32:26.003Z,1.27
2017-02-06T02:34:38.212Z,1.26
2017-02-06T02:36:45.501Z,1.23
2017-02-06T02:38:52.771Z,1.22
2017-02-06T02:41:05.182Z,1.24
2017-02-06T02:43:17.469Z,1.2
2017-02-06T02:45:24.850Z,1.24
2017-02-06T02:47:37.185Z,1.27
2017-02-06T02:49:49.360Z,1.24
2017-02-06T02:52:01.646Z,1.24
2017-02-06T02:54:13.800Z,1.26
2017-02-06T02:56:26.058Z,1.24
2017-02-06T02:58:38.375Z,1.26
2017-02-06T03:00:51.101Z,1.24
2017-02-06T03:03:03.679Z,1.23
2017-02-06T03:05:16.109Z,1.23
2017-02-06T03:07:28.494Z,1.26
2017-02-06T03:09:40.650Z,1.23
2017-02-06T03:11:48.083Z,1.24
2017-02-06T03:14:00.305Z,1.23
2017-02-06T03:16:12.489Z,1.23
2017-02-06T03:18:24.692Z,1.18
2017-02-06T03:20:37.081Z,1.12
2017-02-06T03:22:49.481Z,1.11
2017-02-06T03:25:01.684Z,1.11
2017-02-06T03:27:13.816Z,1.08
2017-02-06T03:29:26.178Z,1.09
2017-02-06T03:31:38.377Z,1.08
2017-02-06T03:33:50.778Z,1.02
2017-02-06T03:36:03.297Z,1.02
2017-02-06T03:38:16.023Z,1.08
2017-02-06T03:40:28.366Z,1.04
2017-02-06T03:42:40.698Z,1.02
2017-02-06T03:44:52.897Z,1.02
2017-02-06T03:47:05.207Z,0.94
2017-02-06T03:49:12.596Z,0.91
2017-02-06T03:51:24.880Z,0.93
2017-02-06T03:53:37.105Z,0.93
2017-02-06T03:55:49.307Z,0.91
2017-02-06T03:58:01.781Z,0.9
2017-02-06T04:00:13.890Z,0.88
2017-02-06T04:02:26.135Z,0.91
2017-02-06T04:04:38.628Z,0.93
2017-02-06T04:06:50.854Z,0.93
2017-02-06T04:09:01.555Z,0.93
2017-02-06T04:11:14.046Z,0.91
2017-02-06T04:13:26.667Z,0.91
2017-02-06T04:15:39.208Z,0.93
2017-02-06T04:17:51.607Z,0.91
2017-02-06T04:20:03.994Z,0.9
2017-02-06T04:22:16.191Z,0.9
2017-02-06T04:24:28.495Z,0.88
2017-02-06T04:26:40.695Z,0.88
2017-02-06T04:28:47.980Z,0.88
2017-02-06T04:31:00.172Z,0.9
2017-02-06T04:33:12.469Z,0.88
2017-02-06T04:35:24.773Z,0.9
2017-02-06T04:37:36.991Z,0.87
2017-02-06T04:39:49.185Z,0.9
2017-02-06T04:41:56.381Z,0.88
2017-02-06T04:44:08.616Z,0.87
2017-02-06T04:46:20.874Z,0.88
2017-02-06T04:48:33.575Z,0.88
2017-02-06T04:50:46.100Z,0.87
2017-02-06T04:52:58.352Z,0.84
2017-02-06T04:55:09.207Z,0.8
2017-02-06T04:57:21.960Z,0.83
2017-02-06T04:59:34.413Z,0.79
2017-02-06T05:01:46.659Z,0.83
2017-02-06T05:03:59.012Z,0.76
2017-02-06T05:06:11.177Z,0.72
2017-02-06T05:08:23.579Z,0.72
2017-02-06T05:10:36.126Z,0.69
2017-02-06T05:12:48.362Z,0.72
2017-02-06T05:15:00.698Z,0.73
2017-02-06T05:17:12.935Z,0.75
2017-02-06T05:19:25.404Z,0.76
2017-02-06T05:21:37.830Z,0.76
2017-02-06T05:23:50.278Z,0.76
2017-02-06T05:26:03.008Z,0.76
2017-02-06T05:28:15.297Z,0.79
2017-02-06T05:30:22.603Z,0.76
2017-02-06T05:32:34.899Z,0.78
2017-02-06T05:34:47.304Z,0.78
2017-02-06T05:36:59.515Z,0.8
2017-02-06T05:39:11.789Z,0.78
2017-02-06T05:41:19.280Z,0.78
2017-02-06T05:43:31.697Z,0.75
2017-02-06T05:45:43.989Z,0.76
2017-02-06T05:47:56.288Z,0.75
2017-02-06T05:50:08.446Z,0.7
2017-02-06T05:52:20.692Z,0.7
2017-02-06T05:54:32.892Z,0.7
2017-02-06T05:56:40.295Z,0.72
2017-02-06T05:58:52.692Z,0.69
2017-02-06T06:01:05.314Z,0.7
2017-02-06T06:03:17.661Z,0.69
2017-02-06T06:05:30.104Z,0.68
2017-02-06T06:07:42.494Z,0.68
2017-02-06T06:09:54.771Z,0.69
2017-02-06T06:12:07.115Z,0.69
2017-02-06T06:14:14.368Z,0.7
2017-02-06T06:16:26.600Z,0.73
2017-02-06T06:18:38.982Z,0.7
2017-02-06T06:20:51.285Z,0.72
2017-02-06T06:23:03.502Z,0.72
2017-02-06T06:25:15.776Z,0.7
2017-02-06T06:27:28.206Z,0.69
2017-02-06T06:29:40.423Z,0.66
2017-02-06T06:31:52.822Z,0.66
2017-02-06T06:34:05.121Z,0.69
2017-02-06T06:36:13.196Z,0.72
2017-02-06T06:38:25.806Z,0.68
2017-02-06T06:40:38.137Z,0.66
2017-02-06T06:42:50.628Z,0.68
2017-02-06T06:45:02.835Z,0.68
2017-02-06T06:47:15.218Z,0.68
2017-02-06T06:49:27.378Z,0.66
2017-02-06T06:51:39.712Z,0.66
2017-02-06T06:53:51.997Z,0.68
2017-02-06T06:56:02.683Z,0.72
2017-02-06T06:58:15.002Z,0.7
2017-02-06T07:00:27.232Z,0.72
2017-02-06T07:02:39.603Z,0.7
2017-02-06T07:04:51.891Z,0.68
2017-02-06T07:07:04.293Z,0.68
2017-02-06T07:09:11.605Z,0.66
2017-02-06T07:11:24.167Z,0.65
2017-02-06T07:13:36.586Z,0.62
2017-02-06T07:15:43.776Z,0.68
2017-02-06T07:17:55.948Z,0.69
2017-02-06T07:20:08.274Z,0.72
2017-02-06T07:22:15.453Z,0.75
2017-02-06T07:24:27.927Z,0.8
2017-02-06T07:26:40.412Z,0.86
2017-02-06T07:28:53.012Z,0.91
2017-02-06T07:31:05.270Z,0.97
2017-02-06T07:33:17.808Z,1
2017-02-06T07:35:31.119Z,1.05
2017-02-06T07:37:43.391Z,1.12
2017-02-06T07:39:56.095Z,1.2
2017-02-06T07:42:08.537Z,1.26
2017-02-06T07:44:21.049Z,1.33
2017-02-06T07:46:33.654Z,1.36
2017-02-06T07:48:46.691Z,1.44
2017-02-06T07:50:59.190Z,1.45
2017-02-06T07:53:11.463Z,1.5
2017-02-06T07:55:23.792Z,1.51
2017-02-06T07:57:36.070Z,1.62
2017-02-06T07:59:48.413Z,1.76
2017-02-06T08:02:00.744Z,1.83
2017-02-06T08:04:13.087Z,1.93
2017-02-06T08:06:25.395Z,2.02
2017-02-06T08:08:37.735Z,2.1
2017-02-06T08:10:50.201Z,2.17
2017-02-06T08:13:02.497Z,2.25
2017-02-06T08:15:14.999Z,2.31
2017-02-06T08:17:27.307Z,2.34
2017-02-06T08:19:39.619Z,2.34
2017-02-06T08:21:52.145Z,2.41
2017-02-06T08:24:04.531Z,2.52
2017-02-06T08:26:16.902Z,2.64
2017-02-06T08:28:29.214Z,2.56
2017-02-06T08:30:41.524Z,2.46
2017-02-06T08:32:54.038Z,2.52
2017-02-06T08:35:06.284Z,2.53
2017-02-06T08:37:18.524Z,2.63
2017-02-06T08:39:25.923Z,2.78
2017-02-06T08:41:38.103Z,3
2017-02-06T08:43:51.576Z,2.93
2017-02-06T08:46:07.006Z,2.97
2017-02-06T08:48:16.157Z,3
2017-02-06T08:50:28.665Z,2.97
2017-02-06T08:52:40.960Z,3.02
2017-02-06T08:54:48.470Z,3.11
2017-02-06T08:57:00.627Z,3.35
2017-02-06T08:59:12.927Z,3.45
2017-02-06T09:01:25.480Z,3.42
2017-02-06T09:03:37.853Z,3.4
2017-02-06T09:05:50.251Z,3.5
2017-02-06T09:08:02.744Z,3.14
2017-02-06T09:10:15.175Z,3.03
2017-02-06T09:12:27.377Z,2.97
2017-02-06T09:14:39.754Z,2.87
2017-02-06T09:16:52.060Z,2.99
2017-02-06T09:19:04.271Z,2.69
2017-02-06T09:21:16.604Z,2.81
2017-02-06T09:23:28.753Z,2.92
2017-02-06T09:25:40.983Z,3.13
2017-02-06T09:27:53.366Z,3.17
2017-02-06T09:30:05.618Z,3.18
2017-02-06T09:32:18.105Z,3.26
2017-02-06T09:34:30.443Z,3.13
2017-02-06T09:36:37.916Z,3.13
2017-02-06T09:38:50.177Z,3.14
2017-02-06T09:41:02.461Z,3.08
2017-02-06T09:43:17.934Z,3.15
2017-02-06T09:45:44.063Z,3.24
2017-02-06T09:48:05.385Z,3.47
2017-02-06T09:50:22.718Z,3.57
2017-02-06T09:52:41.595Z,3.5
2017-02-06T09:54:54.056Z,3.43
2017-02-06T09:57:08.265Z,3.36
2017-02-06T09:59:20.615Z,3.45
2017-02-06T10:01:33.429Z,3.4
2017-02-06T10:03:45.636Z,3.54
2017-02-06T10:06:01.302Z,3.47
2017-02-06T10:08:18.262Z,3.55
2017-02-06T10:10:31.992Z,3.6
2017-02-06T10:12:44.638Z,3.52
2017-02-06T10:14:56.989Z,3.5
2017-02-06T10:17:09.463Z,3.35
2017-02-06T10:19:16.723Z,3.28
2017-02-06T10:21:24.154Z,3.26
2017-02-06T10:23:36.415Z,3.31
2017-02-06T10:25:48.754Z,3.4
2017-02-06T10:28:01.049Z,3.33
2017-02-06T10:30:13.345Z,3.32
2017-02-06T10:32:25.661Z,3.36
2017-02-06T10:34:33.024Z,3.43
2017-02-06T10:36:45.355Z,3.45
2017-02-06T10:38:57.829Z,3.36
2017-02-06T10:41:10.271Z,3.42
2017-02-06T10:43:22.634Z,3.42
2017-02-06T10:45:34.848Z,3.5
2017-02-06T10:47:47.140Z,3.43
2017-02-06T10:49:59.544Z,3.55
2017-02-06T10:52:11.780Z,3.55
2017-02-06T10:54:24.239Z,3.58
2017-02-06T10:56:36.542Z,3.29
2017-02-06T10:58:48.876Z,3.26
2017-02-06T11:01:01.200Z,3.33
2017-02-06T11:03:13.458Z,3.35
2017-02-06T11:05:25.755Z,3.36
2017-02-06T11:07:38.174Z,3.28
2017-02-06T11:09:45.434Z,3.31
2017-02-06T11:11:57.783Z,3.45
2017-02-06T11:14:10.086Z,3.5
2017-02-06T11:16:22.480Z,3.52
2017-02-06T11:18:29.713Z,3.4
2017-02-06T11:20:41.871Z,3.48
2017-02-06T11:22:54.366Z,3.65
2017-02-06T11:25:06.846Z,3.47
2017-02-06T11:27:19.255Z,3.48
2017-02-06T11:29:31.495Z,3.57
2017-02-06T11:31:43.753Z,3.66
2017-02-06T11:33:51.077Z,3.8
2017-02-06T11:36:03.458Z,4.14
2017-02-06T11:38:15.840Z,4.26
2017-02-06T11:40:28.156Z,4.15
2017-02-06T11:42:40.490Z,3.96
2017-02-06T11:44:48.153Z,3.76
2017-02-06T11:47:00.437Z,3.75
2017-02-06T11:49:12.949Z,3.79
2017-02-06T11:51:25.112Z,3.96
2017-02-06T11:53:37.446Z,4.16
2017-02-06T11:55:49.870Z,4.32
2017-02-06T11:58:02.142Z,4.14
2017-02-06T12:00:14.457Z,4.12
2017-02-06T12:02:26.865Z,3.91
2017-02-06T12:04:39.143Z,3.97
2017-02-06T12:06:51.372Z,3.84
2017-02-06T12:09:03.873Z,3.84
2017-02-06T12:11:16.262Z,3.61
2017-02-06T12:13:28.452Z,3.52
2017-02-06T12:15:40.600Z,3.72
2017-02-06T12:17:53.467Z,3.48
2017-02-06T12:20:05.823Z,3.55
2017-02-06T12:22:18.997Z,3.6
2017-02-06T12:24:31.196Z,3.86
2017-02-06T12:26:43.355Z,3.86
2017-02-06T12:28:55.618Z,3.94
2017-02-06T12:31:03.231Z,4.32
2017-02-06T12:33:16.281Z,4.34
2017-02-06T12:35:29.296Z,4.41
2017-02-06T12:37:41.979Z,4.32
2017-02-06T12:39:54.749Z,4.45
2017-02-06T12:42:07.772Z,4.37
2017-02-06T12:44:20.473Z,4.29
2017-02-06T12:46:33.235Z,4.08
2017-02-06T12:48:45.717Z,3.98
2017-02-06T12:50:58.052Z,4.12
2017-02-06T12:53:10.717Z,4.06
2017-02-06T12:55:23.373Z,4.18
2017-02-06T12:57:38.696Z,4.09
2017-02-06T12:59:51.296Z,4.12
2017-02-06T13:02:06.647Z,3.94
2017-02-06T13:04:19.217Z,3.93
2017-02-06T13:06:32.524Z,3.88
2017-02-06T13:08:46.530Z,3.75
2017-02-06T13:10:59.172Z,3.76
2017-02-06T13:13:12.523Z,3.69
2017-02-06T13:15:26.259Z,3.78
2017-02-06T13:17:41.675Z,3.93
2017-02-06T13:19:54.630Z,3.86
2017-02-06T13:22:08.093Z,3.91
2017-02-06T13:24:21.770Z,3.97
2017-02-06T13:26:34.696Z,3.94
2017-02-06T13:28:48.202Z,3.87
2017-02-06T13:31:01.894Z,3.68
2017-02-06T13:33:10.684Z,3.7
2017-02-06T13:35:23.428Z,3.7
2017-02-06T13:37:37.118Z,3.73
2017-02-06T13:39:50.890Z,3.8
2017-02-06T13:42:04.305Z,3.8
2017-02-06T13:44:17.087Z,3.84
2017-02-06T13:46:24.523Z,3.86
2017-02-06T13:48:37.003Z,3.87
2017-02-06T13:50:49.406Z,3.84
2017-02-06T13:53:01.819Z,3.76
2017-02-06T13:55:13.979Z,3.69
2017-02-06T13:57:26.390Z,3.61
2017-02-06T13:59:38.824Z,3.6
2017-02-06T14:01:51.321Z,3.6
2017-02-06T14:04:03.608Z,3.52
2017-02-06T14:06:15.812Z,3.45
2017-02-06T14:08:28.018Z,3.4
2017-02-06T14:10:40.421Z,3.35
2017-02-06T14:12:52.734Z,3.39
2017-02-06T14:15:05.107Z,3.42
2017-02-06T14:17:17.427Z,3.47
2017-02-06T14:19:29.824Z,3.45
2017-02-06T14:21:42.007Z,3.5
2017-02-06T14:23:54.347Z,3.52
2017-02-06T14:26:06.727Z,3.52
2017-02-06T14:28:19.051Z,3.5
2017-02-06T14:30:31.373Z,3.52
2017-02-06T14:32:43.731Z,3.55
2017-02-06T14:34:56.150Z,3.66
2017-02-06T14:37:08.448Z,3.7
2017-02-06T14:39:20.744Z,3.76
2017-02-06T14:41:28.550Z,3.75
2017-02-06T14:43:40.841Z,3.9
2017-02-06T14:45:53.134Z,4
2017-02-06T14:48:05.459Z,4.08
2017-02-06T14:50:17.731Z,4.06
2017-02-06T14:52:29.951Z,4.04
2017-02-06T14:54:42.337Z,3.87
2017-02-06T14:56:54.760Z,3.9
2017-02-06T14:59:02.045Z,3.9
2017-02-06T15:01:14.449Z,3.97
2017-02-06T15:03:26.953Z,3.93
2017-02-06T15:05:39.393Z,3.96
2017-02-06T15:07:51.560Z,3.93
2017-02-06T15:10:03.964Z,3.88
2017-02-06T15:12:16.473Z,3.9
2017-02-06T15:14:24.044Z,3.76
2017-02-06T15:16:36.325Z,3.69
2017-02-06T15:18:48.748Z,3.73
2017-02-06T15:21:01.074Z,3.68
2017-02-06T15:23:13.325Z,3.61
2017-02-06T15:25:25.660Z,3.62
2017-02-06T15:27:37.866Z,3.66
2017-02-06T15:29:50.594Z,3.7
2017-02-06T15:32:02.890Z,3.7
2017-02-06T15:34:15.035Z,3.73
2017-02-06T15:36:27.331Z,3.69
2017-02-06T15:38:42.323Z,3.68
2017-02-06T15:40:54.655Z,3.6
2017-02-06T15:43:07.142Z,3.54
2017-02-06T15:45:19.474Z,3.57
2017-02-06T15:47:31.986Z,3.48
2017-02-06T15:49:44.760Z,3.47
2017-02-06T15:51:57.275Z,3.35
2017-02-06T15:54:09.724Z,3.26
2017-02-06T15:56:21.887Z,3.21
2017-02-06T15:58:34.171Z,3.13
2017-02-06T16:00:46.442Z,3.05
2017-02-06T16:02:58.978Z,2.92
2017-02-06T16:05:11.281Z,2.84
2017-02-06T16:07:23.697Z,2.72
2017-02-06T16:09:36.104Z,2.56
2017-02-06T16:11:48.325Z,2.43
2017-02-06T16:14:00.599Z,2.35
2017-02-06T16:16:12.909Z,2.27
2017-02-06T16:18:25.358Z,2.18
2017-02-06T16:20:37.828Z,2.07
2017-02-06T16:22:45.100Z,2.03
2017-02-06T16:24:57.503Z,1.99
2017-02-06T16:27:09.805Z,1.88
2017-02-06T16:29:22.224Z,1.79
2017-02-06T16:31:34.644Z,1.69
2017-02-06T16:33:47.714Z,1.62
2017-02-06T16:36:00.645Z,1.5
2017-02-06T16:38:12.876Z,1.44
2017-02-06T16:40:25.280Z,1.4
2017-02-06T16:42:37.657Z,1.29
2017-02-06T16:44:49.841Z,1.24
2017-02-06T16:47:02.152Z,1.2
2017-02-06T16:49:14.631Z,1.15
2017-02-06T16:51:26.964Z,1.11
2017-02-06T16:53:39.357Z,1.04
2017-02-06T16:55:51.510Z,0.88
2017-02-06T16:58:04.953Z,0.9
2017-02-06T17:00:17.129Z,0.78
2017-02-06T17:02:29.375Z,0.7
2017-02-06T17:04:42.510Z,0.66
2017-02-06T17:06:54.862Z,0.53
2017-02-06T17:09:07.158Z,0.49
2017-02-06T17:11:19.603Z,0.39
2017-02-06T17:13:32.015Z,0.32
2017-02-06T17:15:44.515Z,0.29
2017-02-06T17:17:56.821Z,0.23
2017-02-06T17:20:09.125Z,0.08
2017-02-06T17:22:21.523Z,-0.07
2017-02-06T17:24:33.827Z,-0.21
2017-02-06T17:26:41.098Z,-0.33
2017-02-06T17:28:53.411Z,-0.46
2017-02-06T17:31:05.740Z,-0.39
2017-02-06T17:33:12.970Z,-0.36
2017-02-06T17:35:25.326Z,-0.43
2017-02-06T17:37:37.601Z,-0.46
2017-02-06T17:39:50.020Z,-0.54
2017-02-06T17:42:02.423Z,-0.58
2017-02-06T17:44:14.765Z,-0.67
2017-02-06T17:46:27.125Z,-0.64
2017-02-06T17:48:39.427Z,-0.82
2017-02-06T17:50:51.644Z,-0.85
2017-02-06T17:53:03.919Z,-1.01
2017-02-06T17:55:16.238Z,-1.01
2017-02-06T17:57:28.373Z,-0.91
2017-02-06T17:59:40.748Z,-1.04
2017-02-06T18:01:53.134Z,-1.04
2017-02-06T18:04:05.421Z,-1.17
2017-02-06T18:06:17.627Z,-1.01
2017-02-06T18:08:29.759Z,-0.94
2017-02-06T18:10:42.027Z,-0.92
2017-02-06T18:12:54.429Z,-0.75
2017-02-06T18:15:01.707Z,-0.76
2017-02-06T18:17:13.949Z,-0.67
2017-02-06T18:19:26.138Z,-0.7
2017-02-06T18:21:38.524Z,-0.79
2017-02-06T18:23:50.928Z,-0.85
2017-02-06T18:26:03.297Z,-0.97
2017-02-06T18:28:15.458Z,-1.05
2017-02-06T18:30:27.712Z,-1.13
2017-02-06T18:32:40.035Z,-1.01
2017-02-06T18:34:52.449Z,-0.86
2017-02-06T18:37:04.935Z,-0.69
2017-02-06T18:39:17.549Z,-0.47
2017-02-06T18:41:29.955Z,-0.22
2017-02-06T18:43:43.444Z,0.04
2017-02-06T18:45:56.822Z,0.24
2017-02-06T18:48:09.156Z,0.39
2017-02-06T18:50:21.521Z,0.51
2017-02-06T18:52:33.861Z,0.6
2017-02-06T18:54:46.050Z,0.62
2017-02-06T18:56:58.371Z,0.66
2017-02-06T18:59:10.736Z,0.68
2017-02-06T19:01:23.021Z,0.72
2017-02-06T19:03:35.424Z,0.7
2017-02-06T19:05:47.963Z,0.69
2017-02-06T19:08:00.228Z,0.68
2017-02-06T19:10:12.631Z,0.69
2017-02-06T19:12:24.837Z,0.7
2017-02-06T19:14:37.102Z,0.7
2017-02-06T19:16:49.400Z,0.73
2017-02-06T19:19:01.814Z,0.73
2017-02-06T19:21:14.102Z,0.72
2017-02-06T19:23:26.974Z,0.83
2017-02-06T19:25:40.507Z,0.87
2017-02-06T19:27:53.027Z,0.91
2017-02-06T19:30:05.694Z,0.9
2017-02-06T19:32:18.104Z,0.93
2017-02-06T19:34:30.473Z,0.94
2017-02-06T19:36:42.909Z,0.91
2017-02-06T19:38:55.437Z,0.91
2017-02-06T19:41:07.830Z,0.86
2017-02-06T19:43:20.392Z,0.78
2017-02-06T19:45:32.722Z,0.79
2017-02-06T19:47:45.277Z,0.79
2017-02-06T19:49:58.183Z,0.69
2017-02-06T19:52:11.156Z,0.53
2017-02-06T19:54:23.845Z,0.39
2017-02-06T19:56:36.466Z,0.39
2017-02-06T19:58:48.992Z,0.41
2017-02-06T20:00:56.496Z,0.42
2017-02-06T20:03:08.890Z,0.5
2017-02-06T20:05:21.307Z,0.6
2017-02-06T20:07:33.529Z,0.66
2017-02-06T20:09:45.805Z,0.7
2017-02-06T20:11:58.239Z,0.76
2017-02-06T20:14:10.615Z,0.8
2017-02-06T20:16:23.222Z,0.86
2017-02-06T20:18:35.513Z,0.83
2017-02-06T20:20:48.156Z,0.83
2017-02-06T20:23:00.539Z,0.83
2017-02-06T20:25:12.915Z,0.8
2017-02-06T20:27:25.540Z,0.84
2017-02-06T20:29:38.129Z,0.84
2017-02-06T20:31:51.412Z,0.87
2017-02-06T20:34:04.343Z,0.86
2017-02-06T20:36:16.912Z,0.84
2017-02-06T20:38:29.598Z,0.84
2017-02-06T20:40:42.221Z,0.86
2017-02-06T20:42:54.947Z,0.87
2017-02-06T20:45:08.796Z,0.86
2017-02-06T20:47:21.229Z,0.84
2017-02-06T20:49:28.626Z,0.86
2017-02-06T20:51:41.516Z,0.87
2017-02-06T20:53:53.908Z,0.87
2017-02-06T20:56:06.180Z,0.84
2017-02-06T20:58:18.582Z,0.84
2017-02-06T21:00:30.968Z,0.87
2017-02-06T21:02:43.382Z,0.86
2017-02-06T21:04:58.550Z,0.88
2017-02-06T21:09:31.044Z,0.9
2017-02-06T21:11:43.688Z,0.9
2017-02-06T21:13:56.173Z,0.88
2017-02-06T21:16:08.504Z,0.91
2017-02-06T21:18:20.758Z,0.9
2017-02-06T21:20:33.038Z,0.91
2017-02-06T21:22:45.369Z,0.93
2017-02-06T21:24:57.660Z,0.93
2017-02-06T21:27:05.358Z,0.94
2017-02-06T21:29:17.594Z,0.98
2017-02-06T21:31:29.791Z,0.98
2017-02-06T21:33:37.152Z,1
2017-02-06T21:35:49.541Z,1
2017-02-06T21:37:56.819Z,1.05
2017-02-06T21:39:54.273Z,1.06
2017-02-06T21:42:06.911Z,1.06
2017-02-06T21:44:21.032Z,1.08
2017-02-06T21:46:35.717Z,1.09
2017-02-06T21:48:48.805Z,1.11
2017-02-06T21:50:56.380Z,1.12
2017-02-06T21:53:11.240Z,1.14
2017-02-06T21:55:23.761Z,1.15
2017-02-06T21:57:35.909Z,1.16
2017-02-06T21:59:43.239Z,1.16
2017-02-06T22:01:55.653Z,1.15
2017-02-06T22:04:08.157Z,1.16
2017-02-06T22:06:20.420Z,1.16
2017-02-06T22:08:32.769Z,1.22
2017-02-06T22:10:45.202Z,1.18
2017-02-06T22:12:57.494Z,1.2
2017-02-06T22:15:08.143Z,1.18
2017-02-06T22:17:20.415Z,1.18
2017-02-06T22:19:32.747Z,1.16
2017-02-06T22:21:44.950Z,1.16
2017-02-06T22:23:57.274Z,1.16
2017-02-06T22:26:09.456Z,1.15
2017-02-06T22:28:21.602Z,1.16
2017-02-06T22:30:33.860Z,1.18
2017-02-06T22:32:46.146Z,1.2
2017-02-06T22:34:58.333Z,1.24
2017-02-06T22:37:05.656Z,1.26
2017-02-06T22:39:17.950Z,1.26
2017-02-06T22:41:30.277Z,1.26
2017-02-06T22:43:42.523Z,1.29
2017-02-06T22:45:54.828Z,1.29
2017-02-06T22:48:07.222Z,1.3
2017-02-06T22:50:19.642Z,1.29
2017-02-06T22:52:31.881Z,1.32
2017-02-06T22:54:44.524Z,1.29
2017-02-06T22:56:56.679Z,1.29
2017-02-06T22:59:09.238Z,1.29
2017-02-06T23:01:21.959Z,1.29
2017-02-06T23:03:34.389Z,1.27
2017-02-06T23:05:41.656Z,1.26
2017-02-06T23:07:53.839Z,1.3
2017-02-06T23:10:06.059Z,1.3
2017-02-06T23:12:18.267Z,1.3
2017-02-06T23:14:30.404Z,1.3
2017-02-06T23:16:42.658Z,1.3
2017-02-06T23:18:54.938Z,1.3
2017-02-06T23:21:07.143Z,1.32
2017-02-06T23:23:19.377Z,1.3
2017-02-06T23:25:31.525Z,1.3
2017-02-06T23:27:44.258Z,1.32
2017-02-06T23:29:56.868Z,1.32
2017-02-06T23:32:09.135Z,1.32
2017-02-06T23:34:16.439Z,1.33
2017-02-06T23:36:28.612Z,1.33
2017-02-06T23:38:41.084Z,1.33
2017-02-06T23:40:53.249Z,1.34
2017-02-06T23:43:05.482Z,1.34
2017-02-06T23:45:17.653Z,1.33
2017-02-06T23:47:29.950Z,1.37
2017-02-06T23:49:42.158Z,1.37
2017-02-06T23:51:54.355Z,1.37
2017-02-06T23:54:06.654Z,1.4
2017-02-06T23:56:19.509Z,1.42
2017-02-06T23:58:36.801Z,1.4
